createdAt,value
2019-05-09T00:02:13.214Z,95.58
2019-05-09T00:04:46.486Z,95.64
2019-05-09T00:07:19.882Z,95.69
2019-05-09T00:09:53.461Z,96.07
2019-05-09T00:12:26.864Z,95.93
2019-05-09T00:15:00.331Z,95.50
2019-05-09T00:17:33.967Z,94.40
2019-05-09T00:20:15.259Z,94.15
2019-05-09T00:22:48.671Z,94.11
2019-05-09T00:25:23.611Z,93.92
2019-05-09T00:27:57.082Z,93.92
2019-05-09T00:30:48.674Z,93.97
2019-05-09T00:33:23.699Z,94.55
2019-05-09T00:35:58.073Z,94.93
2019-05-09T00:38:38.614Z,95.03
2019-05-09T00:41:13.945Z,94.88
2019-05-09T00:43:51.449Z,94.62
2019-05-09T00:46:28.937Z,94.91
2019-05-09T00:49:05.120Z,95.00
2019-05-09T00:51:38.639Z,95.08
2019-05-09T00:54:13.523Z,94.77
2019-05-09T00:56:46.988Z,94.67
2019-05-09T00:59:20.367Z,94.41
2019-05-09T01:01:54.456Z,94.00
2019-05-09T01:04:27.863Z,93.78
2019-05-09T01:07:03.256Z,93.89
2019-05-09T01:09:36.406Z,94.14
2019-05-09T01:12:09.818Z,94.65
2019-05-09T01:14:43.364Z,94.60
2019-05-09T01:17:16.797Z,94.67
2019-05-09T01:19:50.331Z,94.75
2019-05-09T01:22:23.734Z,94.91
2019-05-09T01:24:57.128Z,94.68
2019-05-09T01:27:30.614Z,94.75
2019-05-09T01:30:05.149Z,94.58
2019-05-09T01:32:45.754Z,94.70
2019-05-09T01:35:19.147Z,94.71
2019-05-09T01:37:53.899Z,95.26
2019-05-09T01:40:27.367Z,94.87
2019-05-09T01:43:00.762Z,95.01
2019-05-09T01:45:34.385Z,94.70
2019-05-09T01:48:07.826Z,94.41
2019-05-09T01:50:43.124Z,94.32
2019-05-09T01:53:17.986Z,94.26
2019-05-09T01:56:00.695Z,94.25
2019-05-09T01:58:34.880Z,94.03
2019-05-09T02:01:09.710Z,93.85
2019-05-09T02:03:44.270Z,93.80
2019-05-09T02:06:18.262Z,94.00
2019-05-09T02:08:54.263Z,94.17
2019-05-09T02:11:39.462Z,94.61
2019-05-09T02:14:04.011Z,95.23
2019-05-09T02:16:55.076Z,95.40
2019-05-09T02:19:45.149Z,95.78
2019-05-09T02:22:34.443Z,95.75
2019-05-09T02:25:09.467Z,95.88
2019-05-09T02:27:43.642Z,95.75
2019-05-09T02:30:17.764Z,95.77
2019-05-09T02:32:54.485Z,95.89
2019-05-09T02:35:29.316Z,95.90
2019-05-09T02:38:01.498Z,95.85
2019-05-09T02:40:34.893Z,95.42
2019-05-09T02:43:09.914Z,94.95
2019-05-09T02:45:52.686Z,94.81
2019-05-09T02:48:23.056Z,94.82
2019-05-09T02:50:59.841Z,94.86
2019-05-09T02:53:31.665Z,94.75
2019-05-09T02:56:05.107Z,94.15
2019-05-09T02:58:48.754Z,93.83
2019-05-09T03:01:23.800Z,93.37
2019-05-09T03:03:58.880Z,93.25
2019-05-09T03:06:32.967Z,93.07
2019-05-09T03:09:08.923Z,92.78
2019-05-09T03:11:42.751Z,93.48
2019-05-09T03:14:19.199Z,93.08
2019-05-09T03:16:51.277Z,92.85
2019-05-09T03:19:24.675Z,92.48
2019-05-09T03:22:02.594Z,92.41
2019-05-09T03:24:39.161Z,92.03
2019-05-09T03:27:12.794Z,91.58
2019-05-09T03:29:48.848Z,91.64
2019-05-09T03:32:22.521Z,91.46
2019-05-09T03:34:57.962Z,91.11
2019-05-09T03:37:31.061Z,90.78
2019-05-09T03:40:05.012Z,90.67
2019-05-09T03:42:43.602Z,90.41
2019-05-09T03:45:15.415Z,89.65
2019-05-09T03:47:50.473Z,89.33
2019-05-09T03:50:23.873Z,88.90
2019-05-09T03:52:57.957Z,89.07
2019-05-09T03:55:32.983Z,89.33
2019-05-09T03:58:10.988Z,89.50
2019-05-09T04:00:44.367Z,89.69
2019-05-09T04:03:19.836Z,89.69
2019-05-09T04:05:59.119Z,90.04
2019-05-09T04:08:28.332Z,90.36
2019-05-09T04:11:01.783Z,90.12
2019-05-09T04:13:38.528Z,90.22
2019-05-09T04:16:12.021Z,90.43
2019-05-09T04:18:47.894Z,90.40
2019-05-09T04:21:20.528Z,90.62
2019-05-09T04:23:53.935Z,90.20
2019-05-09T04:26:45.356Z,90.33
2019-05-09T04:29:18.784Z,90.20
2019-05-09T04:31:52.165Z,90.32
2019-05-09T04:34:27.551Z,90.48
2019-05-09T04:37:00.699Z,90.34
2019-05-09T04:39:34.201Z,90.28
2019-05-09T04:42:08.368Z,90.12
2019-05-09T04:44:43.518Z,90.14
2019-05-09T04:47:17.397Z,89.74
2019-05-09T04:49:50.919Z,90.19
2019-05-09T04:52:24.327Z,90.49
2019-05-09T04:54:57.769Z,90.49
2019-05-09T04:57:31.127Z,90.35
2019-05-09T05:00:10.045Z,90.35
2019-05-09T05:02:48.478Z,90.25
2019-05-09T05:05:21.951Z,89.85
2019-05-09T05:07:57.311Z,89.35
2019-05-09T05:10:30.449Z,88.75
2019-05-09T05:13:03.833Z,88.90
2019-05-09T05:15:37.801Z,88.54
2019-05-09T05:18:11.207Z,88.54
2019-05-09T05:20:44.642Z,88.00
2019-05-09T05:23:19.686Z,87.56
2019-05-09T05:25:53.116Z,87.50
2019-05-09T05:28:27.823Z,87.00
2019-05-09T05:31:01.333Z,87.27
2019-05-09T05:33:39.274Z,88.79
2019-05-09T05:36:14.399Z,90.19
2019-05-09T05:38:48.057Z,89.57
2019-05-09T05:41:21.571Z,89.65
2019-05-09T05:43:54.939Z,89.99
2019-05-09T05:46:50.429Z,89.43
2019-05-09T05:49:21.405Z,88.93
2019-05-09T05:51:54.809Z,88.67
2019-05-09T05:54:28.190Z,89.14
2019-05-09T05:57:01.597Z,89.07
2019-05-09T05:59:38.207Z,89.17
2019-05-09T06:02:10.181Z,87.98
2019-05-09T06:04:43.591Z,86.59
2019-05-09T06:07:18.497Z,86.48
2019-05-09T06:09:51.967Z,85.38
2019-05-09T06:12:27.483Z,83.75
2019-05-09T06:15:00.507Z,84.52
2019-05-09T06:17:33.908Z,86.64
2019-05-09T06:20:08.990Z,88.38
2019-05-09T06:22:42.594Z,88.02
2019-05-09T06:25:20.094Z,87.90
2019-05-09T06:27:51.195Z,86.91
2019-05-09T06:30:29.200Z,86.88
2019-05-09T06:33:04.892Z,87.43
2019-05-09T06:35:38.048Z,88.07
2019-05-09T06:38:11.483Z,88.57
2019-05-09T06:40:44.905Z,90.18
2019-05-09T06:43:19.780Z,89.75
2019-05-09T06:46:10.797Z,89.89
2019-05-09T06:48:44.209Z,90.81
2019-05-09T06:51:21.002Z,91.37
2019-05-09T06:53:52.741Z,91.46
2019-05-09T06:56:28.316Z,92.02
2019-05-09T06:59:01.259Z,92.94
2019-05-09T07:01:41.982Z,93.35
2019-05-09T07:04:19.820Z,93.51
2019-05-09T07:06:54.846Z,93.95
2019-05-09T07:09:32.321Z,94.70
2019-05-09T07:12:07.880Z,95.08
2019-05-09T07:14:41.890Z,95.01
2019-05-09T07:17:15.500Z,94.91
2019-05-09T07:19:49.203Z,94.90
2019-05-09T07:22:30.035Z,95.00
2019-05-09T07:25:10.210Z,94.15
2019-05-09T07:27:44.318Z,93.31
2019-05-09T07:30:29.231Z,94.25
2019-05-09T07:33:04.296Z,94.96
2019-05-09T07:35:38.314Z,94.94
2019-05-09T07:38:11.883Z,95.21
2019-05-09T07:40:47.767Z,94.86
2019-05-09T07:43:21.275Z,94.96
2019-05-09T07:46:12.418Z,94.79
2019-05-09T07:48:48.374Z,94.49
2019-05-09T07:51:22.036Z,93.75
2019-05-09T07:53:55.460Z,94.48
2019-05-09T07:56:28.863Z,94.41
2019-05-09T07:59:02.297Z,94.12
2019-05-09T08:01:38.258Z,94.44
2019-05-09T08:04:10.888Z,94.08
2019-05-09T08:06:44.390Z,93.33
2019-05-09T08:09:18.678Z,92.95
2019-05-09T08:11:52.286Z,92.07
2019-05-09T08:14:27.955Z,90.93
2019-05-09T08:17:00.932Z,91.81
2019-05-09T08:19:34.359Z,92.56
2019-05-09T08:22:08.109Z,92.30
2019-05-09T08:24:41.544Z,91.52
2019-05-09T08:27:17.346Z,90.95
2019-05-09T08:29:50.159Z,90.90
2019-05-09T08:32:23.550Z,90.42
2019-05-09T08:34:57.620Z,90.75
2019-05-09T08:37:31.117Z,89.02
2019-05-09T08:40:08.001Z,90.55
2019-05-09T08:42:41.020Z,90.78
2019-05-09T08:45:26.868Z,89.31
2019-05-09T08:47:49.629Z,88.09
2019-05-09T08:50:24.814Z,86.91
2019-05-09T08:52:58.235Z,85.48
2019-05-09T08:55:31.629Z,86.82
2019-05-09T08:58:05.045Z,84.78
2019-05-09T09:00:39.212Z,83.42
2019-05-09T09:03:12.694Z,85.18
2019-05-09T09:05:48.352Z,84.81
2019-05-09T09:08:21.242Z,84.87
2019-05-09T09:10:54.657Z,85.77
2019-05-09T09:13:28.417Z,87.09
2019-05-09T09:16:14.507Z,88.25
2019-05-09T09:18:38.784Z,86.97
2019-05-09T09:21:12.417Z,89.30
2019-05-09T09:23:49.661Z,88.06
2019-05-09T09:26:20.986Z,86.55
2019-05-09T09:28:54.407Z,87.73
2019-05-09T09:31:28.519Z,85.33
2019-05-09T09:34:01.965Z,86.62
2019-05-09T09:36:35.377Z,87.04
2019-05-09T09:39:08.834Z,86.44
2019-05-09T09:41:42.268Z,85.84
2019-05-09T09:44:17.895Z,84.89
2019-05-09T09:46:50.877Z,85.93
2019-05-09T09:49:24.255Z,82.09
2019-05-09T09:51:58.246Z,81.28
2019-05-09T09:54:31.745Z,80.59
2019-05-09T09:57:05.177Z,79.58
2019-05-09T09:59:42.945Z,79.02
2019-05-09T10:02:18.030Z,78.60
2019-05-09T10:04:51.496Z,78.61
2019-05-09T10:07:24.896Z,77.46
2019-05-09T10:09:58.542Z,77.72
2019-05-09T10:12:32.620Z,78.99
2019-05-09T10:15:14.276Z,79.18
2019-05-09T10:17:49.346Z,78.62
2019-05-09T10:20:30.407Z,78.99
2019-05-09T10:23:11.744Z,79.30
2019-05-09T10:25:39.157Z,79.52
2019-05-09T10:28:12.567Z,79.01
2019-05-09T10:30:48.372Z,79.04
2019-05-09T10:33:21.103Z,79.46
2019-05-09T10:35:54.537Z,79.65
2019-05-09T10:38:28.152Z,77.74
2019-05-09T10:41:02.134Z,78.21
2019-05-09T10:43:43.383Z,77.72
2019-05-09T10:46:19.477Z,78.25
2019-05-09T10:48:54.759Z,76.36
2019-05-09T10:51:28.153Z,77.05
2019-05-09T10:54:01.643Z,76.97
2019-05-09T10:56:35.043Z,76.96
2019-05-09T10:59:08.455Z,77.19
2019-05-09T11:01:41.869Z,76.39
2019-05-09T11:04:15.268Z,78.03
2019-05-09T11:06:48.681Z,77.30
2019-05-09T11:09:22.281Z,78.66
2019-05-09T11:11:58.711Z,80.23
2019-05-09T11:14:36.858Z,82.78
2019-05-09T11:17:11.586Z,86.71
2019-05-09T11:19:41.098Z,88.00
2019-05-09T11:22:14.471Z,89.57
2019-05-09T11:24:51.150Z,88.92
2019-05-09T11:27:23.147Z,89.26
2019-05-09T11:29:57.846Z,91.14
2019-05-09T11:32:31.537Z,91.53
2019-05-09T11:35:08.954Z,90.74
2019-05-09T11:37:42.717Z,91.69
2019-05-09T11:40:16.362Z,92.76
2019-05-09T11:42:49.755Z,93.24
2019-05-09T11:45:23.231Z,93.84
2019-05-09T11:47:58.242Z,93.90
2019-05-09T11:50:31.933Z,94.54
2019-05-09T11:53:05.409Z,95.04
2019-05-09T11:55:43.114Z,95.35
2019-05-09T11:58:13.944Z,95.33
2019-05-09T12:00:48.257Z,95.31
2019-05-09T12:03:21.834Z,95.65
2019-05-09T12:05:55.285Z,95.16
2019-05-09T12:08:28.750Z,95.20
2019-05-09T12:11:02.169Z,95.75
2019-05-09T12:13:37.817Z,95.44
2019-05-09T12:16:10.726Z,96.29
2019-05-09T12:18:44.112Z,96.34
2019-05-09T12:21:19.020Z,95.71
2019-05-09T12:23:52.908Z,96.46
2019-05-09T12:26:28.842Z,96.17
2019-05-09T12:29:01.600Z,95.71
2019-05-09T12:31:34.983Z,96.34
2019-05-09T12:34:09.323Z,96.58
2019-05-09T12:36:42.804Z,96.88
2019-05-09T12:39:18.732Z,96.85
2019-05-09T12:41:51.334Z,97.56
2019-05-09T12:44:25.261Z,97.04
2019-05-09T12:46:58.866Z,97.54
2019-05-09T12:49:32.279Z,96.62
2019-05-09T12:52:08.030Z,95.82
2019-05-09T12:54:40.861Z,95.45
2019-05-09T12:57:14.298Z,95.85
2019-05-09T12:59:52.486Z,95.72
2019-05-09T13:02:22.836Z,95.44
2019-05-09T13:04:56.405Z,95.52
2019-05-09T13:07:29.961Z,95.37
2019-05-09T13:10:03.840Z,95.90
2019-05-09T13:12:38.816Z,96.52
2019-05-09T13:15:12.564Z,95.64
2019-05-09T13:17:48.069Z,95.48
2019-05-09T13:20:21.657Z,95.20
2019-05-09T13:22:55.048Z,95.81
2019-05-09T13:25:28.995Z,95.39
2019-05-09T13:28:02.448Z,95.02
2019-05-09T13:30:38.004Z,95.33
2019-05-09T13:33:11.159Z,95.42
2019-05-09T13:35:44.618Z,95.25
2019-05-09T13:38:18.097Z,94.75
2019-05-09T13:40:53.433Z,95.52
2019-05-09T13:43:28.107Z,95.22
2019-05-09T13:46:01.660Z,96.00
2019-05-09T13:48:57.074Z,96.27
2019-05-09T13:51:10.309Z,96.07
2019-05-09T13:53:43.702Z,96.36
2019-05-09T13:56:17.875Z,97.11
2019-05-09T13:58:51.400Z,96.44
2019-05-09T14:01:24.892Z,96.45
2019-05-09T14:03:58.303Z,95.95
2019-05-09T14:06:31.692Z,95.62
2019-05-09T14:09:10.363Z,94.86
2019-05-09T14:11:43.637Z,95.47
2019-05-09T14:14:17.815Z,95.11
2019-05-09T14:16:51.639Z,94.65
2019-05-09T14:19:35.945Z,93.55
2019-05-09T14:22:00.195Z,93.74
2019-05-09T14:24:33.591Z,93.50
2019-05-09T14:27:08.274Z,94.09
2019-05-09T14:29:41.785Z,93.25
2019-05-09T14:32:15.241Z,93.31
2019-05-09T14:34:48.657Z,93.56
2019-05-09T14:37:22.090Z,94.04
2019-05-09T14:39:58.860Z,95.53
2019-05-09T14:42:30.666Z,95.72
2019-05-09T14:45:08.289Z,95.49
2019-05-09T14:47:42.471Z,96.07
2019-05-09T14:50:18.047Z,96.49
2019-05-09T14:52:51.260Z,96.62
2019-05-09T14:55:24.742Z,96.86
2019-05-09T14:57:58.221Z,96.42
2019-05-09T15:00:31.639Z,95.17
2019-05-09T15:03:05.066Z,95.81
2019-05-09T15:05:38.512Z,94.18
2019-05-09T15:08:11.955Z,90.56
2019-05-09T15:10:45.443Z,91.52
2019-05-09T15:13:18.912Z,92.48
2019-05-09T15:15:52.368Z,91.74
2019-05-09T15:18:25.775Z,92.73
2019-05-09T15:20:59.161Z,92.39
2019-05-09T15:23:32.635Z,92.54
2019-05-09T15:26:07.717Z,93.06
2019-05-09T15:28:41.161Z,92.12
2019-05-09T15:31:14.540Z,91.71
2019-05-09T15:33:48.585Z,88.72
2019-05-09T15:36:22.262Z,90.15
2019-05-09T15:38:55.671Z,87.82
2019-05-09T15:41:29.148Z,86.26
2019-05-09T15:44:02.581Z,86.37
2019-05-09T15:46:40.667Z,86.37
2019-05-09T15:49:14.170Z,87.21
2019-05-09T15:51:47.878Z,86.88
2019-05-09T15:54:21.357Z,84.84
2019-05-09T15:56:54.800Z,87.75
2019-05-09T15:59:28.327Z,86.57
2019-05-09T16:02:01.816Z,86.41
2019-05-09T16:04:35.206Z,86.65
2019-05-09T16:07:08.758Z,86.50
2019-05-09T16:09:42.193Z,87.39
2019-05-09T16:12:18.307Z,88.68
2019-05-09T16:14:50.870Z,86.69
2019-05-09T16:17:24.269Z,86.00
2019-05-09T16:19:57.829Z,84.58
2019-05-09T16:22:31.284Z,83.06
2019-05-09T16:25:06.541Z,80.69
2019-05-09T16:27:40.073Z,79.54
2019-05-09T16:30:13.614Z,79.55
2019-05-09T16:32:48.041Z,80.64
2019-05-09T16:35:21.749Z,80.46
2019-05-09T16:38:02.784Z,81.75
2019-05-09T16:40:30.325Z,82.15
2019-05-09T16:43:03.701Z,81.10
2019-05-09T16:45:37.880Z,84.21
2019-05-09T16:48:11.662Z,85.74
2019-05-09T16:50:57.775Z,85.64
2019-05-09T16:53:20.962Z,74.18
2019-05-09T16:55:54.383Z,70.69
2019-05-09T16:58:27.764Z,70.69
2019-05-09T17:01:01.270Z,68.10
2019-05-09T17:03:34.758Z,70.30
2019-05-09T17:06:08.287Z,76.81
2019-05-09T17:08:41.667Z,80.64
2019-05-09T17:11:15.146Z,79.81
2019-05-09T17:13:48.570Z,78.08
2019-05-09T17:16:21.969Z,79.93
2019-05-09T17:18:58.010Z,80.46
2019-05-09T17:21:32.228Z,73.20
2019-05-09T17:24:08.255Z,76.06
2019-05-09T17:26:41.805Z,78.81
2019-05-09T17:29:18.719Z,80.92
2019-05-09T17:31:52.201Z,81.59
2019-05-09T17:34:25.704Z,82.54
2019-05-09T17:36:59.125Z,82.97
2019-05-09T17:39:32.616Z,83.50
2019-05-09T17:42:07.648Z,85.62
2019-05-09T17:44:41.092Z,85.62
2019-05-09T17:47:14.519Z,84.77
2019-05-09T17:49:48.315Z,83.49
2019-05-09T17:52:21.835Z,84.62
2019-05-09T17:54:55.225Z,84.92
2019-05-09T17:57:28.667Z,85.32
2019-05-09T18:00:02.043Z,85.93
2019-05-09T18:02:35.537Z,84.63
2019-05-09T18:05:09.074Z,84.59
2019-05-09T18:07:42.497Z,83.75
2019-05-09T18:10:18.274Z,84.32
2019-05-09T18:12:51.595Z,84.00
2019-05-09T18:15:25.138Z,84.77
2019-05-09T18:17:58.756Z,84.60
2019-05-09T18:20:32.252Z,84.89
2019-05-09T18:23:08.201Z,85.41
2019-05-09T18:25:41.239Z,85.24
2019-05-09T18:28:14.862Z,85.19
2019-05-09T18:30:48.306Z,85.96
2019-05-09T18:33:32.398Z,86.16
2019-05-09T18:36:05.950Z,85.81
2019-05-09T18:38:39.407Z,85.19
2019-05-09T18:41:12.831Z,86.55
2019-05-09T18:43:47.934Z,86.10
2019-05-09T18:46:21.751Z,86.69
2019-05-09T18:48:55.300Z,87.70
2019-05-09T18:51:28.921Z,88.65
2019-05-09T18:54:02.347Z,88.68
2019-05-09T18:56:35.831Z,88.98
2019-05-09T18:59:09.331Z,88.70
2019-05-09T19:01:42.926Z,88.55
2019-05-09T19:04:16.341Z,88.83
2019-05-09T19:06:49.824Z,89.79
2019-05-09T19:09:23.308Z,90.68
2019-05-09T19:11:56.713Z,90.61
2019-05-09T19:14:30.234Z,90.69
2019-05-09T19:17:21.256Z,91.01
2019-05-09T19:20:11.447Z,91.01
2019-05-09T19:22:44.843Z,90.53
2019-05-09T19:25:18.320Z,90.21
2019-05-09T19:27:51.694Z,89.93
2019-05-09T19:30:31.242Z,90.03
2019-05-09T19:33:05.019Z,90.17
2019-05-09T19:35:38.461Z,89.90
2019-05-09T19:38:11.860Z,89.67
2019-05-09T19:40:45.372Z,89.75
2019-05-09T19:43:18.826Z,90.43
2019-05-09T19:45:52.295Z,91.66
2019-05-09T19:48:25.770Z,92.05
2019-05-09T19:50:59.254Z,91.99
2019-05-09T19:53:32.686Z,92.16
2019-05-09T19:56:06.245Z,92.17
2019-05-09T19:58:39.674Z,92.40
2019-05-09T20:01:13.396Z,92.24
2019-05-09T20:03:46.838Z,91.72
2019-05-09T20:06:20.333Z,92.33
2019-05-09T20:08:53.980Z,92.16
2019-05-09T20:11:45.238Z,92.67
2019-05-09T20:14:23.165Z,92.36
2019-05-09T20:16:57.771Z,93.44
2019-05-09T20:19:31.249Z,94.10
2019-05-09T20:22:04.965Z,93.83
2019-05-09T20:24:38.566Z,93.05
2019-05-09T20:27:12.338Z,92.72
2019-05-09T20:29:45.776Z,91.16
2019-05-09T20:32:19.263Z,91.73
2019-05-09T20:34:52.683Z,91.66
2019-05-09T20:37:26.297Z,92.08
2019-05-09T20:39:59.894Z,92.45
2019-05-09T20:42:33.622Z,92.27
2019-05-09T20:45:08.066Z,92.86
2019-05-09T20:47:41.738Z,92.42
2019-05-09T20:50:15.467Z,91.61
2019-05-09T20:52:49.066Z,91.66
2019-05-09T20:55:22.681Z,90.85
2019-05-09T20:57:56.309Z,90.35
2019-05-09T21:00:30.330Z,90.72
2019-05-09T21:03:07.560Z,91.24
2019-05-09T21:05:39.274Z,91.19
2019-05-09T21:08:12.909Z,91.31
2019-05-09T21:10:46.497Z,91.72
2019-05-09T21:13:20.120Z,91.89
2019-05-09T21:15:53.743Z,92.21
2019-05-09T21:18:27.494Z,92.89
2019-05-09T21:21:01.168Z,92.04
2019-05-09T21:23:34.782Z,91.67
2019-05-09T21:26:08.430Z,92.23
2019-05-09T21:28:42.059Z,92.37
2019-05-09T21:31:15.745Z,92.47
2019-05-09T21:33:49.410Z,92.32
2019-05-09T21:36:22.839Z,92.48
2019-05-09T21:38:56.229Z,91.65
2019-05-09T21:41:29.645Z,91.17
2019-05-09T21:44:03.100Z,90.61
2019-05-09T21:46:36.528Z,90.41
2019-05-09T21:49:09.934Z,89.94
2019-05-09T21:51:43.364Z,89.28
2019-05-09T21:54:16.746Z,89.08
2019-05-09T21:56:50.163Z,89.28
2019-05-09T21:59:23.552Z,89.85
2019-05-09T22:01:57.190Z,88.79
2019-05-09T22:04:30.592Z,89.80
2019-05-09T22:07:04.087Z,89.97
2019-05-09T22:09:37.514Z,90.39
2019-05-09T22:12:11.181Z,90.36
2019-05-09T22:14:44.658Z,92.06
2019-05-09T22:17:25.589Z,92.00
2019-05-09T22:19:58.988Z,91.98
2019-05-09T22:22:32.401Z,92.17
2019-05-09T22:25:08.760Z,92.24
2019-05-09T22:27:42.171Z,91.99
2019-05-09T22:30:16.027Z,91.88
2019-05-09T22:32:49.484Z,92.12
2019-05-09T22:35:22.877Z,92.01
2019-05-09T22:37:56.305Z,91.74
2019-05-09T22:40:29.718Z,91.73
2019-05-09T22:43:03.170Z,90.76
2019-05-09T22:45:36.582Z,91.37
2019-05-09T22:48:10.074Z,91.57
2019-05-09T22:50:43.497Z,91.98
2019-05-09T22:53:16.912Z,91.28
2019-05-09T22:55:50.309Z,91.72
2019-05-09T22:58:23.735Z,90.97
2019-05-09T23:00:57.134Z,90.88
2019-05-09T23:03:30.560Z,90.61
2019-05-09T23:06:04.109Z,89.92
2019-05-09T23:08:37.519Z,88.74
2019-05-09T23:11:10.925Z,88.78
2019-05-09T23:13:53.051Z,88.63
2019-05-09T23:16:28.230Z,88.52
2019-05-09T23:19:01.699Z,88.26
2019-05-09T23:21:35.194Z,87.24
2019-05-09T23:24:10.528Z,87.09
2019-05-09T23:26:43.938Z,88.08
2019-05-09T23:29:17.342Z,86.57
2019-05-09T23:32:07.085Z,86.30
2019-05-09T23:34:40.509Z,86.32
2019-05-09T23:37:13.918Z,86.92
2019-05-09T23:39:49.017Z,86.64
2019-05-09T23:42:22.481Z,87.40
2019-05-09T23:44:55.896Z,86.65
2019-05-09T23:47:29.293Z,86.44
2019-05-09T23:50:02.719Z,87.15
2019-05-09T23:52:36.111Z,88.04
2019-05-09T23:55:27.406Z,88.91
2019-05-09T23:58:18.534Z,87.83
